Hlavní strana
METAR-TAF:

METAR-TAF

Letiště :

Stord, Norsko

zeměpisná šířka: 59-48N, zeměpisná délka: 005-21E, výška: 49 m

Aktuální stav počasí

Zpráva byla vytvořena před 38 minutami, v 13:20 UTC
Severozápadní vítr 16 kt, proměnlivý mezi západoseverozápadním a severním
Teplota 7°C
Vlhkost vzduchu 49%
Tlak 1008 hPa
Viditelnost 10 km a více
Skoro jasno ve výšce 4000 ft

METAR: ENSO 181320Z 32016KT 290V350 9999 FEW040 07/M03 Q1008

Čas: 14:58 (13:58 UTC)

Předpověď počasí

Zpráva byla vytvořena před 2 hodinami a 58 minutami, v 11:00 UTC
Předpověď platná od 18 v 12 UTC do 18 v 19 UTC
Severoseverozápadní vítr 15 kt
Viditelnost 10 km a více
Skoro jasno ve výšce 2500 ft
Dočasný
od 18 v 12 UTC do 18 v 14 UTC
Severoseverozápadní vítr 20 kt s nárazy do 30 kt

TAF: ENSO 181100Z 1812/1819 34015KT 9999 FEW025 TEMPO 1812/1814 34020G30KT

Stav a předpovědi počasí z více než 4 000 letišť (zprávy METAR a TAF).

Červené a žluté tečky na mapě představují dostupné meteorologické stanice.

Když kurzor umístíte na tečku, zobrazí se název stanice.

Pak kliknutím zobrazíte stav a předpověď počasí.

Chcete-li změnit mapu, kliknutím na zelené tlačítko se znaménkem +mapu přiblížíte, kliknutím na zelené tlačítko se znaménkem – mapu oddálíte a kliknutím na zelené šipky přejdete na sousední mapy.


METAR-TAF: